Ottumwa Regional Airport Ottumwa US
ICAO: KOTM
IATA: OTM
Category: Medium
Scheduled Services: No

Elevation: 845 ft
TransAlt. 18000 ft.

Airport Communications:
ASOS:124.175
CHICAGO CNTR:118.15
FORT DODGE RDO:122.4
CTAF/UNICOM:123

KOTM Zoom In..

If you have problems with the map follow the link
https://www.worldairports.se/pages/airport.php?
ICAO=KOTM

Runways:

(A) RW 04 length 4600 ft width 100 ft
---- / hdg 42

(B) RW 13 length 5885 ft width 150 ft
---- / hdg 132

(C) RW 22 length 4600 ft width 100 ft
---- / hdg 222

(D) RW 31 length 5885 ft width 150 ft
ILS 109.50 / hdg 312

Location; KOTM
Day. 24 / Time. 07.53 Zulu
* Altimeter: 29.86
* Temperature: -13° c. -8.6°f.
* Wind from: 240° Speed 08 kn.
Dewpoint: -14° c.
Visibility: 7 Statute Miles.
Clouds: Clear (automated report).

KOTM 240753Z AUTO 24008KT 7SM CLR M13/M14 A2986 RMK AO2 SLP127 I1000 T11331144


Wind From 240°
Speed 08 kn.

 
 
jpsmedia.com for Web Design worldairports.se 2019   terms of use